sensor_id;sensor_type;location;lat;lon;timestamp;P1;durP1;ratioP1;P2;durP2;ratioP2
62736;SDS011;48787;46.494;-1.782;2022-07-29T00:02:17;0.60;;;0.60;;
62736;SDS011;48787;46.494;-1.782;2022-07-29T00:04:43;2.28;;;0.60;;
62736;SDS011;48787;46.494;-1.782;2022-07-29T00:07:09;1.13;;;0.70;;
62736;SDS011;48787;46.494;-1.782;2022-07-29T00:09:35;0.80;;;0.50;;
62736;SDS011;48787;46.494;-1.782;2022-07-29T00:12:01;0.80;;;0.50;;
62736;SDS011;48787;46.494;-1.782;2022-07-29T00:14:28;0.70;;;0.68;;
62736;SDS011;48787;46.494;-1.782;2022-07-29T00:16:54;0.77;;;0.55;;
62736;SDS011;48787;46.494;-1.782;2022-07-29T00:19:20;1.35;;;0.57;;
62736;SDS011;48787;46.494;-1.782;2022-07-29T00:21:46;0.82;;;0.55;;
62736;SDS011;48787;46.494;-1.782;2022-07-29T00:24:12;0.73;;;0.50;;
62736;SDS011;48787;46.494;-1.782;2022-07-29T00:26:38;0.55;;;0.50;;
62736;SDS011;48787;46.494;-1.782;2022-07-29T00:29:04;1.58;;;0.68;;
62736;SDS011;48787;46.494;-1.782;2022-07-29T00:31:30;1.52;;;0.63;;
62736;SDS011;48787;46.494;-1.782;2022-07-29T00:33:56;0.45;;;0.45;;
62736;SDS011;48787;46.494;-1.782;2022-07-29T00:36:22;0.93;;;0.60;;
62736;SDS011;48787;46.494;-1.782;2022-07-29T00:38:49;1.13;;;0.73;;
62736;SDS011;48787;46.494;-1.782;2022-07-29T00:41:15;2.00;;;0.57;;
62736;SDS011;48787;46.494;-1.782;2022-07-29T00:43:41;0.82;;;0.43;;
62736;SDS011;48787;46.494;-1.782;2022-07-29T00:46:07;1.42;;;0.80;;
62736;SDS011;48787;46.494;-1.782;2022-07-29T00:48:33;0.80;;;0.50;;
62736;SDS011;48787;46.494;-1.782;2022-07-29T00:51:00;0.93;;;0.63;;
62736;SDS011;48787;46.494;-1.782;2022-07-29T00:53:27;0.73;;;0.50;;
62736;SDS011;48787;46.494;-1.782;2022-07-29T00:55:56;0.40;;;0.40;;
62736;SDS011;48787;46.494;-1.782;2022-07-29T00:58:22;1.60;;;0.80;;
62736;SDS011;48787;46.494;-1.782;2022-07-29T01:00:49;0.80;;;0.50;;
62736;SDS011;48787;46.494;-1.782;2022-07-29T01:03:15;0.70;;;0.50;;
62736;SDS011;48787;46.494;-1.782;2022-07-29T01:05:42;0.63;;;0.50;;
62736;SDS011;48787;46.494;-1.782;2022-07-29T01:08:08;0.80;;;0.50;;
62736;SDS011;48787;46.494;-1.782;2022-07-29T01:10:36;1.13;;;0.63;;
62736;SDS011;48787;46.494;-1.782;2022-07-29T01:13:03;1.40;;;0.50;;
62736;SDS011;48787;46.494;-1.782;2022-07-29T01:15:30;0.50;;;0.43;;
62736;SDS011;48787;46.494;-1.782;2022-07-29T01:20:26;1.50;;;0.63;;
62736;SDS011;48787;46.494;-1.782;2022-07-29T01:23:11;1.10;;;0.50;;
62736;SDS011;48787;46.494;-1.782;2022-07-29T01:31:02;0.60;;;0.52;;
62736;SDS011;48787;46.494;-1.782;2022-07-29T01:33:28;0.68;;;0.50;;
62736;SDS011;48787;46.494;-1.782;2022-07-29T01:36:24;0.60;;;0.50;;
62736;SDS011;48787;46.494;-1.782;2022-07-29T01:38:58;1.27;;;0.60;;
62736;SDS011;48787;46.494;-1.782;2022-07-29T01:41:24;0.90;;;0.43;;
62736;SDS011;48787;46.494;-1.782;2022-07-29T01:44:27;0.90;;;0.57;;
62736;SDS011;48787;46.494;-1.782;2022-07-29T01:46:48;0.50;;;0.40;;
62736;SDS011;48787;46.494;-1.782;2022-07-29T01:49:16;2.08;;;0.65;;
62736;SDS011;48787;46.494;-1.782;2022-07-29T01:51:53;2.75;;;0.60;;
62736;SDS011;48787;46.494;-1.782;2022-07-29T01:54:32;0.50;;;0.43;;
62736;SDS011;48787;46.494;-1.782;2022-07-29T01:57:00;1.10;;;0.60;;
62736;SDS011;48787;46.494;-1.782;2022-07-29T01:59:26;1.63;;;0.60;;
62736;SDS011;48787;46.494;-1.782;2022-07-29T02:01:55;2.50;;;0.50;;
62736;SDS011;48787;46.494;-1.782;2022-07-29T02:04:22;1.85;;;0.40;;
62736;SDS011;48787;46.494;-1.782;2022-07-29T02:06:49;1.00;;;0.50;;
62736;SDS011;48787;46.494;-1.782;2022-07-29T02:09:16;1.33;;;0.68;;
62736;SDS011;48787;46.494;-1.782;2022-07-29T02:11:47;1.13;;;0.65;;
62736;SDS011;48787;46.494;-1.782;2022-07-29T02:14:14;1.50;;;0.65;;
62736;SDS011;48787;46.494;-1.782;2022-07-29T02:16:41;1.65;;;0.70;;
62736;SDS011;48787;46.494;-1.782;2022-07-29T02:19:07;1.15;;;0.52;;
62736;SDS011;48787;46.494;-1.782;2022-07-29T02:21:33;1.45;;;0.40;;
62736;SDS011;48787;46.494;-1.782;2022-07-29T02:24:01;1.02;;;0.60;;
62736;SDS011;48787;46.494;-1.782;2022-07-29T02:26:27;1.38;;;0.77;;
62736;SDS011;48787;46.494;-1.782;2022-07-29T02:28:55;1.58;;;0.50;;
62736;SDS011;48787;46.494;-1.782;2022-07-29T02:31:23;2.90;;;0.75;;
62736;SDS011;48787;46.494;-1.782;2022-07-29T02:33:49;0.75;;;0.55;;
62736;SDS011;48787;46.494;-1.782;2022-07-29T02:36:16;1.15;;;0.70;;
62736;SDS011;48787;46.494;-1.782;2022-07-29T02:38:42;1.17;;;0.55;;
62736;SDS011;48787;46.494;-1.782;2022-07-29T02:41:28;0.93;;;0.47;;
62736;SDS011;48787;46.494;-1.782;2022-07-29T02:43:56;1.13;;;0.60;;
62736;SDS011;48787;46.494;-1.782;2022-07-29T02:46:27;1.77;;;0.50;;
62736;SDS011;48787;46.494;-1.782;2022-07-29T02:48:57;1.10;;;0.70;;
62736;SDS011;48787;46.494;-1.782;2022-07-29T02:51:28;1.35;;;0.50;;
62736;SDS011;48787;46.494;-1.782;2022-07-29T02:53:58;0.40;;;0.40;;
62736;SDS011;48787;46.494;-1.782;2022-07-29T02:56:27;1.48;;;0.60;;
62736;SDS011;48787;46.494;-1.782;2022-07-29T02:58:54;0.65;;;0.50;;
62736;SDS011;48787;46.494;-1.782;2022-07-29T03:01:25;2.03;;;0.80;;
62736;SDS011;48787;46.494;-1.782;2022-07-29T03:03:54;1.33;;;0.77;;
62736;SDS011;48787;46.494;-1.782;2022-07-29T03:06:21;0.80;;;0.55;;
62736;SDS011;48787;46.494;-1.782;2022-07-29T03:08:48;0.63;;;0.57;;
62736;SDS011;48787;46.494;-1.782;2022-07-29T03:11:14;2.78;;;0.77;;
62736;SDS011;48787;46.494;-1.782;2022-07-29T03:13:41;0.40;;;0.40;;
62736;SDS011;48787;46.494;-1.782;2022-07-29T03:16:07;1.17;;;0.70;;
62736;SDS011;48787;46.494;-1.782;2022-07-29T03:18:33;1.35;;;0.70;;
62736;SDS011;48787;46.494;-1.782;2022-07-29T03:20:59;1.13;;;0.57;;
62736;SDS011;48787;46.494;-1.782;2022-07-29T03:23:26;0.73;;;0.40;;
62736;SDS011;48787;46.494;-1.782;2022-07-29T03:25:53;1.25;;;0.68;;
62736;SDS011;48787;46.494;-1.782;2022-07-29T03:28:19;0.93;;;0.60;;
62736;SDS011;48787;46.494;-1.782;2022-07-29T03:30:46;0.90;;;0.47;;
62736;SDS011;48787;46.494;-1.782;2022-07-29T03:33:12;1.20;;;0.50;;
62736;SDS011;48787;46.494;-1.782;2022-07-29T03:35:38;0.82;;;0.70;;
62736;SDS011;48787;46.494;-1.782;2022-07-29T03:38:04;0.57;;;0.50;;
62736;SDS011;48787;46.494;-1.782;2022-07-29T03:40:35;1.42;;;0.70;;
62736;SDS011;48787;46.494;-1.782;2022-07-29T03:43:04;0.50;;;0.50;;
62736;SDS011;48787;46.494;-1.782;2022-07-29T03:45:31;1.05;;;0.77;;
62736;SDS011;48787;46.494;-1.782;2022-07-29T03:47:59;1.80;;;0.70;;
62736;SDS011;48787;46.494;-1.782;2022-07-29T03:50:27;1.15;;;0.60;;
62736;SDS011;48787;46.494;-1.782;2022-07-29T03:52:53;0.90;;;0.50;;
62736;SDS011;48787;46.494;-1.782;2022-07-29T03:55:19;1.38;;;0.57;;
62736;SDS011;48787;46.494;-1.782;2022-07-29T03:57:46;0.93;;;0.50;;
62736;SDS011;48787;46.494;-1.782;2022-07-29T04:00:12;1.48;;;0.60;;
62736;SDS011;48787;46.494;-1.782;2022-07-29T04:02:40;1.38;;;0.60;;
62736;SDS011;48787;46.494;-1.782;2022-07-29T04:05:13;2.10;;;0.70;;
62736;SDS011;48787;46.494;-1.782;2022-07-29T04:07:39;0.60;;;0.60;;
62736;SDS011;48787;46.494;-1.782;2022-07-29T04:10:06;2.00;;;0.60;;
62736;SDS011;48787;46.494;-1.782;2022-07-29T04:12:32;0.85;;;0.60;;
62736;SDS011;48787;46.494;-1.782;2022-07-29T04:14:58;0.60;;;0.60;;
62736;SDS011;48787;46.494;-1.782;2022-07-29T04:17:24;1.25;;;0.50;;
62736;SDS011;48787;46.494;-1.782;2022-07-29T04:19:50;0.60;;;0.43;;
62736;SDS011;48787;46.494;-1.782;2022-07-29T04:22:16;1.13;;;0.50;;
62736;SDS011;48787;46.494;-1.782;2022-07-29T04:24:42;0.45;;;0.45;;
62736;SDS011;48787;46.494;-1.782;2022-07-29T04:27:08;0.50;;;0.50;;
62736;SDS011;48787;46.494;-1.782;2022-07-29T04:29:34;0.55;;;0.55;;
62736;SDS011;48787;46.494;-1.782;2022-07-29T04:32:00;1.00;;;0.60;;
62736;SDS011;48787;46.494;-1.782;2022-07-29T04:34:26;1.08;;;0.70;;
62736;SDS011;48787;46.494;-1.782;2022-07-29T04:36:52;0.77;;;0.50;;
62736;SDS011;48787;46.494;-1.782;2022-07-29T04:39:18;1.20;;;0.60;;
62736;SDS011;48787;46.494;-1.782;2022-07-29T04:41:45;1.75;;;0.70;;
62736;SDS011;48787;46.494;-1.782;2022-07-29T04:44:12;0.80;;;0.57;;
62736;SDS011;48787;46.494;-1.782;2022-07-29T04:46:38;1.33;;;0.47;;
62736;SDS011;48787;46.494;-1.782;2022-07-29T04:49:04;0.75;;;0.60;;
62736;SDS011;48787;46.494;-1.782;2022-07-29T04:51:30;1.45;;;0.60;;
62736;SDS011;48787;46.494;-1.782;2022-07-29T04:53:56;1.25;;;0.50;;
62736;SDS011;48787;46.494;-1.782;2022-07-29T04:56:22;1.15;;;0.63;;
62736;SDS011;48787;46.494;-1.782;2022-07-29T04:58:49;1.50;;;0.63;;
62736;SDS011;48787;46.494;-1.782;2022-07-29T05:01:15;2.15;;;0.60;;
62736;SDS011;48787;46.494;-1.782;2022-07-29T05:03:41;1.60;;;0.50;;
62736;SDS011;48787;46.494;-1.782;2022-07-29T05:06:07;1.95;;;0.63;;
62736;SDS011;48787;46.494;-1.782;2022-07-29T05:08:33;1.33;;;0.70;;
62736;SDS011;48787;46.494;-1.782;2022-07-29T05:10:59;1.23;;;0.60;;
62736;SDS011;48787;46.494;-1.782;2022-07-29T05:13:25;0.93;;;0.50;;
62736;SDS011;48787;46.494;-1.782;2022-07-29T05:15:51;0.50;;;0.50;;
62736;SDS011;48787;46.494;-1.782;2022-07-29T05:18:17;1.38;;;0.60;;
62736;SDS011;48787;46.494;-1.782;2022-07-29T05:20:43;0.95;;;0.50;;
62736;SDS011;48787;46.494;-1.782;2022-07-29T05:23:09;2.28;;;0.70;;
62736;SDS011;48787;46.494;-1.782;2022-07-29T05:25:37;1.92;;;0.70;;
62736;SDS011;48787;46.494;-1.782;2022-07-29T05:28:04;1.75;;;0.80;;
62736;SDS011;48787;46.494;-1.782;2022-07-29T05:30:30;2.08;;;0.57;;
62736;SDS011;48787;46.494;-1.782;2022-07-29T05:32:56;2.13;;;0.60;;
62736;SDS011;48787;46.494;-1.782;2022-07-29T05:35:22;1.05;;;0.50;;
62736;SDS011;48787;46.494;-1.782;2022-07-29T05:37:48;1.13;;;0.70;;
62736;SDS011;48787;46.494;-1.782;2022-07-29T05:40:14;1.20;;;0.70;;
62736;SDS011;48787;46.494;-1.782;2022-07-29T05:42:40;1.58;;;0.60;;
62736;SDS011;48787;46.494;-1.782;2022-07-29T05:45:07;1.73;;;0.60;;
62736;SDS011;48787;46.494;-1.782;2022-07-29T05:47:33;1.58;;;0.57;;
62736;SDS011;48787;46.494;-1.782;2022-07-29T05:49:59;2.05;;;0.90;;
62736;SDS011;48787;46.494;-1.782;2022-07-29T05:52:25;0.93;;;0.63;;
62736;SDS011;48787;46.494;-1.782;2022-07-29T05:54:52;1.45;;;0.57;;
62736;SDS011;48787;46.494;-1.782;2022-07-29T05:57:22;1.25;;;0.60;;
62736;SDS011;48787;46.494;-1.782;2022-07-29T05:59:48;1.17;;;0.50;;
62736;SDS011;48787;46.494;-1.782;2022-07-29T06:02:14;2.13;;;0.52;;
62736;SDS011;48787;46.494;-1.782;2022-07-29T06:04:41;0.77;;;0.50;;
62736;SDS011;48787;46.494;-1.782;2022-07-29T06:07:07;2.53;;;1.20;;
62736;SDS011;48787;46.494;-1.782;2022-07-29T06:09:33;1.05;;;0.73;;
62736;SDS011;48787;46.494;-1.782;2022-07-29T06:12:00;0.45;;;0.45;;
62736;SDS011;48787;46.494;-1.782;2022-07-29T06:14:26;1.70;;;0.90;;
62736;SDS011;48787;46.494;-1.782;2022-07-29T06:16:53;1.83;;;0.70;;
62736;SDS011;48787;46.494;-1.782;2022-07-29T06:19:20;0.82;;;0.52;;
62736;SDS011;48787;46.494;-1.782;2022-07-29T06:21:46;1.13;;;0.60;;
62736;SDS011;48787;46.494;-1.782;2022-07-29T06:24:13;2.15;;;0.60;;
62736;SDS011;48787;46.494;-1.782;2022-07-29T06:26:40;1.50;;;0.40;;
62736;SDS011;48787;46.494;-1.782;2022-07-29T06:29:06;1.02;;;0.70;;
62736;SDS011;48787;46.494;-1.782;2022-07-29T06:31:33;1.30;;;0.60;;
62736;SDS011;48787;46.494;-1.782;2022-07-29T06:33:59;1.25;;;0.60;;
62736;SDS011;48787;46.494;-1.782;2022-07-29T06:36:25;2.03;;;0.50;;
62736;SDS011;48787;46.494;-1.782;2022-07-29T06:38:51;2.95;;;0.75;;
62736;SDS011;48787;46.494;-1.782;2022-07-29T06:41:17;0.60;;;0.60;;
62736;SDS011;48787;46.494;-1.782;2022-07-29T06:43:44;1.17;;;0.63;;
62736;SDS011;48787;46.494;-1.782;2022-07-29T06:46:12;0.90;;;0.70;;
62736;SDS011;48787;46.494;-1.782;2022-07-29T06:48:39;1.38;;;0.55;;
62736;SDS011;48787;46.494;-1.782;2022-07-29T06:51:05;0.82;;;0.50;;
62736;SDS011;48787;46.494;-1.782;2022-07-29T06:53:32;1.38;;;0.60;;
62736;SDS011;48787;46.494;-1.782;2022-07-29T06:55:59;0.98;;;0.50;;
62736;SDS011;48787;46.494;-1.782;2022-07-29T06:58:26;1.33;;;0.55;;
62736;SDS011;48787;46.494;-1.782;2022-07-29T07:00:52;1.38;;;0.60;;
62736;SDS011;48787;46.494;-1.782;2022-07-29T07:03:18;0.80;;;0.60;;
62736;SDS011;48787;46.494;-1.782;2022-07-29T07:05:45;3.08;;;0.68;;
62736;SDS011;48787;46.494;-1.782;2022-07-29T07:08:11;2.70;;;0.80;;
62736;SDS011;48787;46.494;-1.782;2022-07-29T07:10:38;1.30;;;0.70;;
62736;SDS011;48787;46.494;-1.782;2022-07-29T07:13:05;1.55;;;0.45;;
62736;SDS011;48787;46.494;-1.782;2022-07-29T07:15:31;2.28;;;0.70;;
62736;SDS011;48787;46.494;-1.782;2022-07-29T07:17:57;1.25;;;0.68;;
62736;SDS011;48787;46.494;-1.782;2022-07-29T07:20:24;2.03;;;0.65;;
62736;SDS011;48787;46.494;-1.782;2022-07-29T07:22:50;0.50;;;0.50;;
62736;SDS011;48787;46.494;-1.782;2022-07-29T07:25:16;2.25;;;0.65;;
62736;SDS011;48787;46.494;-1.782;2022-07-29T07:27:43;0.60;;;0.50;;
62736;SDS011;48787;46.494;-1.782;2022-07-29T07:30:09;1.67;;;0.50;;
62736;SDS011;48787;46.494;-1.782;2022-07-29T07:32:35;1.25;;;0.60;;
62736;SDS011;48787;46.494;-1.782;2022-07-29T07:35:02;1.45;;;0.63;;
62736;SDS011;48787;46.494;-1.782;2022-07-29T07:37:28;1.58;;;0.60;;
62736;SDS011;48787;46.494;-1.782;2022-07-29T07:39:54;3.10;;;0.65;;
62736;SDS011;48787;46.494;-1.782;2022-07-29T07:42:20;0.98;;;0.60;;
62736;SDS011;48787;46.494;-1.782;2022-07-29T07:44:46;2.00;;;0.85;;
62736;SDS011;48787;46.494;-1.782;2022-07-29T07:47:13;2.05;;;0.90;;
62736;SDS011;48787;46.494;-1.782;2022-07-29T07:49:39;3.42;;;0.70;;
62736;SDS011;48787;46.494;-1.782;2022-07-29T07:52:05;2.88;;;0.65;;
62736;SDS011;48787;46.494;-1.782;2022-07-29T07:54:31;1.17;;;0.60;;
62736;SDS011;48787;46.494;-1.782;2022-07-29T07:56:58;1.98;;;1.00;;
62736;SDS011;48787;46.494;-1.782;2022-07-29T07:59:24;1.48;;;0.60;;
62736;SDS011;48787;46.494;-1.782;2022-07-29T08:01:50;1.00;;;0.80;;
62736;SDS011;48787;46.494;-1.782;2022-07-29T08:04:16;1.30;;;0.77;;
62736;SDS011;48787;46.494;-1.782;2022-07-29T08:06:42;1.58;;;0.70;;
62736;SDS011;48787;46.494;-1.782;2022-07-29T08:09:08;3.00;;;0.63;;
62736;SDS011;48787;46.494;-1.782;2022-07-29T08:11:34;1.77;;;0.77;;
62736;SDS011;48787;46.494;-1.782;2022-07-29T08:14:00;2.13;;;0.70;;
62736;SDS011;48787;46.494;-1.782;2022-07-29T08:16:27;1.75;;;0.70;;
62736;SDS011;48787;46.494;-1.782;2022-07-29T08:18:53;3.30;;;0.50;;
62736;SDS011;48787;46.494;-1.782;2022-07-29T08:21:22;1.08;;;0.55;;
62736;SDS011;48787;46.494;-1.782;2022-07-29T08:23:48;1.17;;;0.55;;
62736;SDS011;48787;46.494;-1.782;2022-07-29T08:26:17;0.82;;;0.60;;
62736;SDS011;48787;46.494;-1.782;2022-07-29T08:28:43;2.22;;;0.55;;
62736;SDS011;48787;46.494;-1.782;2022-07-29T08:31:10;1.45;;;0.60;;
62736;SDS011;48787;46.494;-1.782;2022-07-29T08:33:36;1.67;;;0.70;;
62736;SDS011;48787;46.494;-1.782;2022-07-29T08:36:03;2.58;;;0.60;;
62736;SDS011;48787;46.494;-1.782;2022-07-29T08:38:29;2.97;;;0.80;;
62736;SDS011;48787;46.494;-1.782;2022-07-29T08:40:55;0.88;;;0.60;;
62736;SDS011;48787;46.494;-1.782;2022-07-29T08:43:21;2.75;;;0.70;;
62736;SDS011;48787;46.494;-1.782;2022-07-29T08:45:50;1.08;;;0.55;;
62736;SDS011;48787;46.494;-1.782;2022-07-29T08:48:17;0.55;;;0.52;;
62736;SDS011;48787;46.494;-1.782;2022-07-29T08:50:44;1.50;;;0.60;;
62736;SDS011;48787;46.494;-1.782;2022-07-29T08:53:11;1.92;;;0.85;;
62736;SDS011;48787;46.494;-1.782;2022-07-29T08:55:44;1.85;;;0.85;;
62736;SDS011;48787;46.494;-1.782;2022-07-29T08:58:11;3.53;;;0.70;;
62736;SDS011;48787;46.494;-1.782;2022-07-29T09:00:37;2.53;;;0.77;;
62736;SDS011;48787;46.494;-1.782;2022-07-29T09:03:06;0.77;;;0.50;;
62736;SDS011;48787;46.494;-1.782;2022-07-29T09:05:34;0.77;;;0.60;;
62736;SDS011;48787;46.494;-1.782;2022-07-29T09:08:01;1.42;;;0.80;;
62736;SDS011;48787;46.494;-1.782;2022-07-29T09:10:27;2.72;;;0.77;;
62736;SDS011;48787;46.494;-1.782;2022-07-29T09:12:56;0.88;;;0.73;;
62736;SDS011;48787;46.494;-1.782;2022-07-29T09:15:22;1.13;;;0.70;;
62736;SDS011;48787;46.494;-1.782;2022-07-29T09:17:49;1.65;;;0.70;;
62736;SDS011;48787;46.494;-1.782;2022-07-29T09:20:19;1.05;;;0.55;;
62736;SDS011;48787;46.494;-1.782;2022-07-29T09:22:47;0.93;;;0.60;;
62736;SDS011;48787;46.494;-1.782;2022-07-29T09:25:14;0.60;;;0.60;;
62736;SDS011;48787;46.494;-1.782;2022-07-29T09:27:40;1.20;;;0.80;;
62736;SDS011;48787;46.494;-1.782;2022-07-29T09:30:07;1.30;;;0.70;;
62736;SDS011;48787;46.494;-1.782;2022-07-29T09:32:56;1.27;;;0.73;;
62736;SDS011;48787;46.494;-1.782;2022-07-29T09:35:23;1.08;;;0.63;;
62736;SDS011;48787;46.494;-1.782;2022-07-29T09:37:50;1.20;;;0.63;;
62736;SDS011;48787;46.494;-1.782;2022-07-29T09:40:21;1.35;;;0.70;;
62736;SDS011;48787;46.494;-1.782;2022-07-29T09:42:47;0.63;;;0.60;;
62736;SDS011;48787;46.494;-1.782;2022-07-29T09:45:32;1.58;;;0.70;;
62736;SDS011;48787;46.494;-1.782;2022-07-29T09:47:59;1.13;;;0.60;;
62736;SDS011;48787;46.494;-1.782;2022-07-29T09:50:40;1.00;;;0.60;;
62736;SDS011;48787;46.494;-1.782;2022-07-29T09:53:07;3.35;;;0.70;;
62736;SDS011;48787;46.494;-1.782;2022-07-29T09:55:49;0.75;;;0.60;;
62736;SDS011;48787;46.494;-1.782;2022-07-29T09:58:18;1.50;;;0.60;;
62736;SDS011;48787;46.494;-1.782;2022-07-29T10:00:45;1.70;;;0.80;;
62736;SDS011;48787;46.494;-1.782;2022-07-29T10:03:12;1.08;;;0.60;;
62736;SDS011;48787;46.494;-1.782;2022-07-29T10:05:38;1.73;;;0.73;;
62736;SDS011;48787;46.494;-1.782;2022-07-29T10:08:05;2.03;;;0.70;;
62736;SDS011;48787;46.494;-1.782;2022-07-29T10:10:36;1.00;;;0.57;;
62736;SDS011;48787;46.494;-1.782;2022-07-29T10:13:03;1.17;;;0.55;;
62736;SDS011;48787;46.494;-1.782;2022-07-29T10:15:30;1.08;;;0.60;;
62736;SDS011;48787;46.494;-1.782;2022-07-29T10:17:58;1.15;;;0.65;;
62736;SDS011;48787;46.494;-1.782;2022-07-29T10:20:24;0.57;;;0.47;;
62736;SDS011;48787;46.494;-1.782;2022-07-29T10:22:51;0.90;;;0.60;;
62736;SDS011;48787;46.494;-1.782;2022-07-29T10:25:18;2.72;;;0.63;;
62736;SDS011;48787;46.494;-1.782;2022-07-29T10:27:44;1.13;;;0.45;;
62736;SDS011;48787;46.494;-1.782;2022-07-29T10:30:11;1.75;;;0.60;;
62736;SDS011;48787;46.494;-1.782;2022-07-29T10:40:15;4.95;;;3.17;;
62736;SDS011;48787;46.494;-1.782;2022-07-29T10:43:04;3.53;;;2.78;;
62736;SDS011;48787;46.494;-1.782;2022-07-29T10:45:32;3.47;;;2.17;;
62736;SDS011;48787;46.494;-1.782;2022-07-29T10:48:02;2.90;;;2.17;;
62736;SDS011;48787;46.494;-1.782;2022-07-29T10:50:51;3.08;;;2.00;;
62736;SDS011;48787;46.494;-1.782;2022-07-29T10:53:15;3.67;;;2.47;;
62736;SDS011;48787;46.494;-1.782;2022-07-29T10:55:41;3.03;;;2.13;;
62736;SDS011;48787;46.494;-1.782;2022-07-29T10:58:20;5.25;;;2.75;;
62736;SDS011;48787;46.494;-1.782;2022-07-29T11:00:48;3.55;;;2.38;;
62736;SDS011;48787;46.494;-1.782;2022-07-29T11:05:59;4.65;;;3.25;;
62736;SDS011;48787;46.494;-1.782;2022-07-29T11:08:25;3.53;;;2.35;;
62736;SDS011;48787;46.494;-1.782;2022-07-29T11:10:53;4.05;;;2.45;;
62736;SDS011;48787;46.494;-1.782;2022-07-29T11:16:04;5.50;;;2.50;;
62736;SDS011;48787;46.494;-1.782;2022-07-29T11:18:31;2.90;;;2.22;;
62736;SDS011;48787;46.494;-1.782;2022-07-29T11:20:58;2.53;;;2.33;;
62736;SDS011;48787;46.494;-1.782;2022-07-29T11:28:51;4.40;;;2.17;;
62736;SDS011;48787;46.494;-1.782;2022-07-29T11:31:19;4.95;;;2.63;;
62736;SDS011;48787;46.494;-1.782;2022-07-29T11:33:45;4.82;;;2.70;;
62736;SDS011;48787;46.494;-1.782;2022-07-29T11:36:14;2.72;;;2.00;;
62736;SDS011;48787;46.494;-1.782;2022-07-29T11:38:40;4.60;;;2.20;;
62736;SDS011;48787;46.494;-1.782;2022-07-29T11:43:51;4.95;;;2.20;;
62736;SDS011;48787;46.494;-1.782;2022-07-29T11:46:41;3.72;;;2.33;;
62736;SDS011;48787;46.494;-1.782;2022-07-29T11:49:04;5.77;;;2.57;;
62736;SDS011;48787;46.494;-1.782;2022-07-29T11:51:30;4.13;;;2.20;;
62736;SDS011;48787;46.494;-1.782;2022-07-29T11:53:57;3.65;;;2.22;;
62736;SDS011;48787;46.494;-1.782;2022-07-29T11:56:23;3.38;;;2.17;;
62736;SDS011;48787;46.494;-1.782;2022-07-29T11:59:01;3.70;;;2.00;;
62736;SDS011;48787;46.494;-1.782;2022-07-29T12:01:28;4.13;;;2.20;;
62736;SDS011;48787;46.494;-1.782;2022-07-29T12:04:07;3.67;;;2.28;;
62736;SDS011;48787;46.494;-1.782;2022-07-29T12:06:33;3.25;;;1.80;;
62736;SDS011;48787;46.494;-1.782;2022-07-29T12:09:00;2.17;;;1.48;;
62736;SDS011;48787;46.494;-1.782;2022-07-29T12:11:26;2.65;;;1.98;;
62736;SDS011;48787;46.494;-1.782;2022-07-29T12:13:52;3.03;;;1.88;;
62736;SDS011;48787;46.494;-1.782;2022-07-29T12:16:19;2.05;;;1.70;;
62736;SDS011;48787;46.494;-1.782;2022-07-29T12:18:55;2.88;;;1.92;;
62736;SDS011;48787;46.494;-1.782;2022-07-29T12:21:22;2.65;;;1.60;;
62736;SDS011;48787;46.494;-1.782;2022-07-29T12:23:54;3.45;;;1.90;;
62736;SDS011;48787;46.494;-1.782;2022-07-29T12:26:21;2.63;;;1.80;;
62736;SDS011;48787;46.494;-1.782;2022-07-29T12:28:47;4.07;;;2.00;;
62736;SDS011;48787;46.494;-1.782;2022-07-29T12:31:14;2.53;;;1.77;;
62736;SDS011;48787;46.494;-1.782;2022-07-29T12:33:40;2.85;;;1.75;;
62736;SDS011;48787;46.494;-1.782;2022-07-29T12:36:06;2.30;;;1.70;;
62736;SDS011;48787;46.494;-1.782;2022-07-29T12:38:33;3.00;;;1.77;;
62736;SDS011;48787;46.494;-1.782;2022-07-29T12:40:59;3.28;;;1.63;;
62736;SDS011;48787;46.494;-1.782;2022-07-29T12:43:26;2.35;;;1.45;;
62736;SDS011;48787;46.494;-1.782;2022-07-29T12:45:53;3.30;;;1.55;;
62736;SDS011;48787;46.494;-1.782;2022-07-29T12:48:35;2.17;;;1.50;;
62736;SDS011;48787;46.494;-1.782;2022-07-29T12:51:02;3.08;;;1.50;;
62736;SDS011;48787;46.494;-1.782;2022-07-29T12:53:28;1.65;;;1.33;;
62736;SDS011;48787;46.494;-1.782;2022-07-29T12:55:55;2.42;;;1.40;;
62736;SDS011;48787;46.494;-1.782;2022-07-29T12:58:28;1.75;;;1.50;;
62736;SDS011;48787;46.494;-1.782;2022-07-29T13:06:29;2.00;;;1.38;;
62736;SDS011;48787;46.494;-1.782;2022-07-29T13:09:02;4.25;;;1.40;;
62736;SDS011;48787;46.494;-1.782;2022-07-29T13:11:32;1.58;;;1.33;;
62736;SDS011;48787;46.494;-1.782;2022-07-29T13:13:58;3.28;;;1.40;;
62736;SDS011;48787;46.494;-1.782;2022-07-29T13:16:24;2.47;;;1.30;;
62736;SDS011;48787;46.494;-1.782;2022-07-29T13:19:02;1.67;;;1.10;;
62736;SDS011;48787;46.494;-1.782;2022-07-29T13:21:28;1.67;;;1.50;;
62736;SDS011;48787;46.494;-1.782;2022-07-29T13:23:55;1.60;;;1.30;;
62736;SDS011;48787;46.494;-1.782;2022-07-29T13:26:21;1.65;;;1.20;;
62736;SDS011;48787;46.494;-1.782;2022-07-29T13:28:47;3.00;;;1.20;;
62736;SDS011;48787;46.494;-1.782;2022-07-29T13:31:13;1.95;;;1.38;;
62736;SDS011;48787;46.494;-1.782;2022-07-29T13:33:39;3.42;;;1.27;;
62736;SDS011;48787;46.494;-1.782;2022-07-29T13:36:05;1.70;;;1.10;;
62736;SDS011;48787;46.494;-1.782;2022-07-29T13:38:31;2.80;;;1.33;;
62736;SDS011;48787;46.494;-1.782;2022-07-29T13:40:57;1.27;;;1.08;;
62736;SDS011;48787;46.494;-1.782;2022-07-29T13:43:23;1.83;;;1.20;;
62736;SDS011;48787;46.494;-1.782;2022-07-29T13:45:50;3.20;;;1.33;;
62736;SDS011;48787;46.494;-1.782;2022-07-29T13:48:16;2.17;;;1.02;;
62736;SDS011;48787;46.494;-1.782;2022-07-29T13:50:42;1.15;;;0.80;;
62736;SDS011;48787;46.494;-1.782;2022-07-29T13:53:08;3.22;;;1.23;;
62736;SDS011;48787;46.494;-1.782;2022-07-29T13:55:34;1.60;;;1.10;;
62736;SDS011;48787;46.494;-1.782;2022-07-29T13:58:00;1.55;;;1.08;;
62736;SDS011;48787;46.494;-1.782;2022-07-29T14:00:26;0.98;;;0.93;;
62736;SDS011;48787;46.494;-1.782;2022-07-29T14:02:52;2.20;;;1.00;;
62736;SDS011;48787;46.494;-1.782;2022-07-29T14:05:18;2.30;;;1.00;;
62736;SDS011;48787;46.494;-1.782;2022-07-29T14:07:44;0.90;;;0.80;;
62736;SDS011;48787;46.494;-1.782;2022-07-29T14:10:10;1.42;;;1.05;;
62736;SDS011;48787;46.494;-1.782;2022-07-29T14:12:36;1.63;;;1.00;;
62736;SDS011;48787;46.494;-1.782;2022-07-29T14:15:02;0.95;;;0.80;;
62736;SDS011;48787;46.494;-1.782;2022-07-29T14:17:28;1.52;;;0.82;;
62736;SDS011;48787;46.494;-1.782;2022-07-29T14:19:54;1.23;;;0.80;;
62736;SDS011;48787;46.494;-1.782;2022-07-29T14:22:20;0.80;;;0.80;;
62736;SDS011;48787;46.494;-1.782;2022-07-29T14:24:46;2.25;;;0.88;;
62736;SDS011;48787;46.494;-1.782;2022-07-29T14:27:12;3.00;;;1.20;;
62736;SDS011;48787;46.494;-1.782;2022-07-29T14:29:39;1.23;;;0.93;;
62736;SDS011;48787;46.494;-1.782;2022-07-29T14:32:05;0.80;;;0.80;;
62736;SDS011;48787;46.494;-1.782;2022-07-29T14:34:31;3.03;;;0.90;;
62736;SDS011;48787;46.494;-1.782;2022-07-29T14:36:58;2.15;;;0.90;;
62736;SDS011;48787;46.494;-1.782;2022-07-29T14:39:24;4.75;;;0.82;;
62736;SDS011;48787;46.494;-1.782;2022-07-29T14:41:50;3.10;;;0.85;;
62736;SDS011;48787;46.494;-1.782;2022-07-29T14:44:16;2.53;;;1.02;;
62736;SDS011;48787;46.494;-1.782;2022-07-29T14:46:43;5.10;;;1.33;;
62736;SDS011;48787;46.494;-1.782;2022-07-29T14:49:09;4.72;;;0.90;;
62736;SDS011;48787;46.494;-1.782;2022-07-29T14:51:35;7.30;;;1.00;;
62736;SDS011;48787;46.494;-1.782;2022-07-29T14:54:01;8.27;;;1.00;;
62736;SDS011;48787;46.494;-1.782;2022-07-29T14:56:27;7.80;;;1.27;;
62736;SDS011;48787;46.494;-1.782;2022-07-29T14:58:55;6.97;;;1.10;;
62736;SDS011;48787;46.494;-1.782;2022-07-29T15:01:21;5.53;;;1.00;;
62736;SDS011;48787;46.494;-1.782;2022-07-29T15:03:47;3.78;;;0.90;;
62736;SDS011;48787;46.494;-1.782;2022-07-29T15:06:13;5.43;;;0.80;;
62736;SDS011;48787;46.494;-1.782;2022-07-29T15:08:39;5.20;;;1.00;;
62736;SDS011;48787;46.494;-1.782;2022-07-29T15:11:05;4.90;;;0.93;;